createdAt,value
2023-03-13T00:00:01.059Z,86.52
2023-03-13T00:05:03.780Z,87.06
2023-03-13T00:10:06.661Z,87.48
2023-03-13T00:15:08.983Z,87.48
2023-03-13T00:20:11.432Z,87.40
2023-03-13T00:25:13.134Z,85.94
2023-03-13T00:30:14.973Z,85.50
2023-03-13T00:35:16.934Z,85.64
2023-03-13T00:40:20.251Z,85.25
2023-03-13T00:45:22.121Z,84.28
2023-03-13T00:50:23.766Z,83.81
2023-03-13T00:55:25.389Z,84.41
2023-03-13T01:00:27.041Z,83.65
2023-03-13T01:05:28.783Z,83.10
2023-03-13T01:10:30.428Z,81.87
2023-03-13T01:15:35.087Z,80.19
2023-03-13T01:20:38.567Z,80.55
2023-03-13T01:25:40.666Z,80.31
2023-03-13T01:30:42.671Z,79.09
2023-03-13T01:35:45.898Z,78.90
2023-03-13T01:40:49.535Z,78.28
2023-03-13T01:45:54.719Z,78.99
2023-03-13T01:51:01.721Z,78.68
2023-03-13T01:56:08.221Z,78.61
2023-03-13T02:01:10.967Z,78.65
2023-03-13T02:06:13.125Z,77.72
2023-03-13T02:11:33.051Z,78.92
2023-03-13T02:16:35.782Z,79.63
2023-03-13T02:21:49.389Z,80.75
2023-03-13T02:26:51.121Z,81.37
2023-03-13T02:31:53.856Z,82.11
2023-03-13T02:36:56.503Z,81.71
2023-03-13T02:42:00.211Z,82.47
2023-03-13T02:47:02.415Z,83.24
2023-03-13T02:52:20.710Z,82.17
2023-03-13T02:57:22.431Z,83.31
2023-03-13T03:02:24.449Z,84.46
2023-03-13T03:07:27.948Z,84.48
2023-03-13T03:12:29.719Z,83.58
2023-03-13T03:17:31.514Z,83.11
2023-03-13T03:22:34.678Z,83.67
2023-03-13T03:27:40.156Z,84.06
2023-03-13T03:32:43.346Z,85.61
2023-03-13T03:37:45.287Z,84.13
2023-03-13T03:42:47.873Z,84.71
2023-03-13T03:47:49.605Z,85.18
2023-03-13T03:52:51.456Z,86.63
2023-03-13T03:57:53.925Z,87.83
2023-03-13T04:03:13.862Z,87.49
2023-03-13T04:08:16.031Z,88.31
2023-03-13T04:13:17.791Z,87.34
2023-03-13T04:18:20.828Z,87.11
2023-03-13T04:23:22.778Z,88.96
2023-03-13T04:28:26.918Z,89.67
2023-03-13T04:33:29.544Z,90.08
2023-03-13T04:38:49.513Z,89.64
2023-03-13T04:44:10.032Z,89.51
2023-03-13T04:49:11.973Z,88.85
2023-03-13T04:54:14.097Z,87.84
2023-03-13T04:59:38.475Z,87.11
2023-03-13T05:05:03.785Z,84.91
2023-03-13T05:10:23.951Z,83.65
2023-03-13T05:15:44.390Z,82.63
2023-03-13T05:20:59.072Z,82.55
2023-03-13T05:26:16.117Z,82.25
2023-03-13T05:31:38.337Z,81.57
2023-03-13T05:36:53.711Z,82.44
2023-03-13T05:42:14.032Z,82.25
2023-03-13T05:47:28.438Z,83.49
2023-03-13T05:53:02.438Z,81.96
2023-03-13T05:58:13.994Z,83.24
2023-03-13T06:03:34.685Z,81.77
2023-03-13T06:08:36.680Z,81.96
2023-03-13T06:13:38.414Z,80.82
2023-03-13T06:19:02.966Z,80.99
2023-03-13T06:24:05.118Z,80.62
2023-03-13T06:29:06.793Z,80.80
2023-03-13T06:34:11.559Z,78.77
2023-03-13T06:39:13.423Z,77.53
2023-03-13T06:44:15.286Z,78.79
2023-03-13T06:49:16.972Z,76.73
2023-03-13T06:54:18.714Z,75.34
2023-03-13T06:59:20.418Z,75.08
2023-03-13T07:04:22.146Z,74.29
2023-03-13T07:09:24.025Z,75.06
2023-03-13T07:14:25.741Z,75.31
2023-03-13T07:19:27.519Z,76.02
2023-03-13T07:24:29.312Z,77.17
2023-03-13T07:29:31.008Z,82.14
2023-03-13T07:34:32.707Z,86.36
2023-03-13T07:39:34.365Z,91.24
2023-03-13T07:44:36.141Z,95.20
2023-03-13T07:49:43.993Z,98.59
2023-03-13T07:54:46.801Z,100.00
2023-03-13T07:59:48.546Z,100.00
2023-03-13T08:04:53.880Z,100.00
2023-03-13T08:09:55.662Z,100.00
2023-03-13T08:14:57.759Z,100.00
2023-03-13T08:19:59.418Z,100.00
2023-03-13T08:25:01.076Z,99.70
2023-03-13T08:30:02.772Z,98.54
2023-03-13T08:35:05.255Z,99.17
2023-03-13T08:40:11.434Z,97.47
2023-03-13T08:45:15.630Z,97.27
2023-03-13T08:50:17.319Z,96.38
2023-03-13T08:55:19.013Z,95.62
2023-03-13T09:00:20.902Z,96.68
2023-03-13T09:05:22.522Z,93.65
2023-03-13T09:10:24.185Z,95.93
2023-03-13T09:15:25.962Z,94.10
2023-03-13T09:20:27.618Z,93.58
2023-03-13T09:25:29.549Z,91.27
2023-03-13T09:30:31.224Z,91.58
2023-03-13T09:35:32.873Z,91.79
2023-03-13T09:40:56.515Z,96.88
2023-03-13T09:46:12.012Z,100.00
2023-03-13T09:51:21.415Z,100.00
2023-03-13T09:56:26.437Z,100.00
2023-03-13T10:01:34.520Z,99.73
2023-03-13T10:06:43.852Z,96.63
2023-03-13T10:11:53.660Z,94.28
2023-03-13T10:17:05.248Z,94.75
2023-03-13T10:22:16.200Z,93.53
2023-03-13T10:27:18.139Z,94.38
2023-03-13T10:32:20.840Z,90.99
2023-03-13T10:37:29.401Z,91.16
2023-03-13T10:42:39.994Z,89.75
2023-03-13T10:47:41.696Z,89.63
2023-03-13T10:52:46.414Z,87.82
2023-03-13T10:58:03.537Z,87.39
2023-03-13T11:03:31.685Z,85.22
2023-03-13T11:08:37.359Z,85.72
2023-03-13T11:13:43.972Z,86.54
2023-03-13T11:19:01.301Z,84.82
2023-03-13T11:24:15.428Z,85.69
2023-03-13T11:29:52.620Z,83.61
2023-03-13T11:34:59.531Z,84.97
2023-03-13T11:40:16.962Z,85.12
2023-03-13T11:45:28.448Z,85.33
2023-03-13T11:50:52.451Z,84.13
2023-03-13T11:56:17.866Z,82.25
2023-03-13T12:01:24.466Z,82.51
2023-03-13T12:06:28.722Z,84.84
2023-03-13T12:11:45.208Z,83.44
2023-03-13T12:16:55.042Z,83.11
2023-03-13T12:21:58.727Z,83.23
2023-03-13T12:27:08.475Z,80.58
2023-03-13T12:32:19.697Z,82.97
2023-03-13T12:37:46.439Z,77.91
2023-03-13T12:43:06.104Z,76.73
2023-03-13T12:48:29.821Z,76.14
2023-03-13T12:54:03.492Z,75.84
2023-03-13T12:59:18.142Z,73.40
2023-03-13T13:04:23.698Z,74.01
2023-03-13T13:09:31.397Z,72.41
2023-03-13T13:14:48.328Z,71.75
2023-03-13T13:19:50.452Z,69.47
2023-03-13T13:25:03.020Z,66.74
2023-03-13T13:30:27.832Z,67.11
2023-03-13T13:35:29.781Z,66.02
2023-03-13T13:40:32.235Z,64.34
2023-03-13T13:45:38.721Z,65.56
2023-03-13T13:51:11.003Z,64.77
2023-03-13T13:56:42.804Z,66.30
2023-03-13T14:01:45.289Z,66.71
2023-03-13T14:06:52.206Z,69.28
2023-03-13T14:11:54.181Z,66.63
2023-03-13T14:16:57.277Z,66.59
2023-03-13T14:22:10.546Z,65.31
2023-03-13T14:27:19.649Z,65.49
2023-03-13T14:32:26.557Z,66.39
2023-03-13T14:37:52.332Z,66.10
2023-03-13T14:43:02.274Z,65.84
2023-03-13T14:48:19.517Z,67.04
2023-03-13T14:53:22.845Z,66.36
2023-03-13T14:58:30.555Z,65.03
2023-03-13T15:03:33.490Z,67.03
2023-03-13T15:09:10.640Z,65.99
2023-03-13T15:14:34.320Z,65.85
2023-03-13T15:19:36.275Z,66.78
2023-03-13T15:24:37.999Z,66.07
2023-03-13T15:29:39.746Z,67.65
2023-03-13T15:34:41.387Z,66.24
2023-03-13T15:39:43.048Z,66.14
2023-03-13T15:44:44.746Z,66.88
2023-03-13T15:49:46.566Z,65.37
2023-03-13T15:54:49.563Z,66.22
2023-03-13T15:59:52.689Z,67.67
2023-03-13T16:04:55.962Z,67.00
2023-03-13T16:09:57.614Z,66.24
2023-03-13T16:14:59.395Z,67.67
2023-03-13T16:20:01.084Z,66.79
2023-03-13T16:25:02.915Z,67.18
2023-03-13T16:30:12.255Z,69.00
2023-03-13T16:35:16.512Z,70.00
2023-03-13T16:40:22.611Z,71.18
2023-03-13T16:45:25.032Z,70.77
2023-03-13T16:50:32.128Z,71.33
2023-03-13T16:55:36.790Z,72.25
2023-03-13T17:00:38.807Z,72.22
2023-03-13T17:05:40.586Z,71.23
2023-03-13T17:10:42.286Z,73.21
2023-03-13T17:15:44.145Z,74.60
2023-03-13T17:20:46.817Z,76.41
2023-03-13T17:25:48.575Z,75.69
2023-03-13T17:30:50.292Z,76.48
2023-03-13T17:35:52.044Z,74.98
2023-03-13T17:40:54.359Z,74.12
2023-03-13T17:45:56.671Z,73.37
2023-03-13T17:50:58.599Z,72.47
2023-03-13T17:56:00.269Z,73.34
2023-03-13T18:01:01.910Z,74.61
2023-03-13T18:06:04.116Z,74.66
2023-03-13T18:11:05.973Z,72.41
2023-03-13T18:16:18.169Z,72.16
2023-03-13T18:21:22.114Z,71.25
2023-03-13T18:26:33.666Z,72.81
2023-03-13T18:31:36.431Z,73.10
2023-03-13T18:36:38.529Z,73.33
2023-03-13T18:41:40.459Z,73.76
2023-03-13T18:46:43.928Z,74.97
2023-03-13T18:51:49.286Z,73.71
2023-03-13T18:56:51.223Z,73.36
2023-03-13T19:01:56.113Z,73.01
2023-03-13T19:06:59.928Z,73.13
2023-03-13T19:12:01.766Z,74.18
2023-03-13T19:17:07.122Z,73.35
2023-03-13T19:22:13.596Z,73.75
2023-03-13T19:27:16.882Z,76.32
2023-03-13T19:32:18.996Z,85.60
2023-03-13T19:37:20.951Z,98.58
2023-03-13T19:42:22.723Z,97.87
2023-03-13T19:47:24.381Z,99.79
2023-03-13T19:52:26.069Z,100.00
2023-03-13T19:57:27.860Z,100.00
2023-03-13T20:02:29.630Z,100.00
2023-03-13T20:07:32.568Z,100.00
2023-03-13T20:12:39.360Z,100.00
2023-03-13T20:17:41.095Z,100.00
2023-03-13T20:22:42.779Z,100.00
2023-03-13T20:27:44.450Z,100.00
2023-03-13T20:32:58.771Z,100.00
2023-03-13T20:38:01.909Z,100.00
2023-03-13T20:43:03.686Z,100.00
2023-03-13T20:48:05.662Z,100.00
2023-03-13T20:53:07.616Z,100.00
2023-03-13T20:58:09.317Z,100.00
2023-03-13T21:03:11.760Z,100.00
2023-03-13T21:08:13.533Z,100.00
2023-03-13T21:13:15.285Z,100.00
2023-03-13T21:18:16.941Z,100.00
2023-03-13T21:23:25.329Z,100.00
2023-03-13T21:28:28.159Z,100.00
2023-03-13T21:33:29.941Z,100.00
2023-03-13T21:38:31.724Z,100.00
2023-03-13T21:43:33.483Z,100.00
2023-03-13T21:48:35.133Z,100.00
2023-03-13T21:53:38.087Z,100.00
2023-03-13T21:58:40.010Z,100.00
2023-03-13T22:03:42.253Z,100.00
2023-03-13T22:08:43.988Z,100.00
2023-03-13T22:13:45.805Z,100.00
2023-03-13T22:18:47.486Z,100.00
2023-03-13T22:23:49.241Z,100.00
2023-03-13T22:28:51.230Z,100.00
2023-03-13T22:33:52.855Z,100.00
2023-03-13T22:38:54.540Z,100.00
2023-03-13T22:43:56.172Z,100.00
2023-03-13T22:48:57.949Z,100.00
2023-03-13T22:53:59.685Z,100.00
2023-03-13T22:59:03.013Z,100.00
2023-03-13T23:04:04.789Z,100.00
2023-03-13T23:09:07.392Z,100.00
2023-03-13T23:14:09.110Z,100.00
2023-03-13T23:19:11.032Z,100.00
2023-03-13T23:24:12.843Z,100.00
2023-03-13T23:29:14.586Z,100.00
2023-03-13T23:34:21.826Z,100.00
2023-03-13T23:39:24.011Z,100.00
2023-03-13T23:44:25.773Z,100.00
2023-03-13T23:49:27.451Z,100.00
2023-03-13T23:54:29.173Z,100.00
2023-03-13T23:59:30.948Z,100.00
